createdAt,value
2018-11-01T00:01:24.311Z,7.49
2018-11-01T00:03:52.579Z,7.60
2018-11-01T00:06:20.875Z,7.43
2018-11-01T00:08:49.195Z,7.57
2018-11-01T00:11:17.563Z,7.46
2018-11-01T00:13:46.140Z,7.42
2018-11-01T00:16:14.531Z,7.66
2018-11-01T00:18:43.263Z,7.57
2018-11-01T00:21:11.552Z,7.58
2018-11-01T00:23:40.307Z,7.56
2018-11-01T00:26:09.081Z,7.62
2018-11-01T00:28:37.432Z,7.48
2018-11-01T00:31:05.851Z,7.57
2018-11-01T00:33:34.244Z,7.68
2018-11-01T00:36:02.561Z,7.52
2018-11-01T00:38:31.003Z,7.55
2018-11-01T00:40:59.288Z,7.35
2018-11-01T00:43:27.643Z,7.33
2018-11-01T00:45:55.932Z,7.15
2018-11-01T00:48:24.246Z,7.18
2018-11-01T00:50:52.663Z,7.04
2018-11-01T00:53:21.026Z,7.00
2018-11-01T00:55:49.267Z,7.12
2018-11-01T00:58:17.596Z,6.95
2018-11-01T01:00:45.866Z,6.96
2018-11-01T01:03:14.196Z,6.90
2018-11-01T01:05:42.467Z,6.70
2018-11-01T01:08:10.759Z,6.52
2018-11-01T01:10:39.163Z,6.30
2018-11-01T01:13:07.485Z,6.06
2018-11-01T01:15:35.763Z,5.78
2018-11-01T01:18:04.111Z,5.79
2018-11-01T01:20:32.396Z,5.57
2018-11-01T01:23:00.679Z,5.19
2018-11-01T01:25:28.979Z,5.11
2018-11-01T01:27:57.252Z,5.14
2018-11-01T01:30:25.562Z,4.88
2018-11-01T01:32:53.845Z,4.86
2018-11-01T01:35:22.155Z,4.61
2018-11-01T01:37:50.431Z,4.49
2018-11-01T01:40:18.763Z,4.32
2018-11-01T01:42:53.947Z,4.28
2018-11-01T01:45:22.867Z,4.45
2018-11-01T01:47:51.159Z,4.23
2018-11-01T01:50:19.972Z,4.34
2018-11-01T01:52:48.529Z,4.19
2018-11-01T01:55:16.845Z,4.19
2018-11-01T01:57:45.156Z,4.13
2018-11-01T02:00:16.117Z,3.94
2018-11-01T02:02:45.614Z,4.11
2018-11-01T02:05:13.927Z,4.08
2018-11-01T02:07:42.232Z,4.20
2018-11-01T02:10:12.464Z,4.62
2018-11-01T02:12:40.898Z,4.97
2018-11-01T02:15:11.415Z,5.23
2018-11-01T02:17:39.979Z,5.44
2018-11-01T02:20:10.283Z,5.96
2018-11-01T02:22:38.620Z,6.40
2018-11-01T02:25:07.255Z,6.66
2018-11-01T02:27:40.852Z,6.60
2018-11-01T02:30:11.318Z,6.67
2018-11-01T02:32:40.017Z,6.51
2018-11-01T02:35:09.612Z,6.43
2018-11-01T02:37:37.967Z,6.46
2018-11-01T02:40:07.408Z,6.59
2018-11-01T02:42:35.715Z,6.68
2018-11-01T02:45:04.047Z,6.72
2018-11-01T02:47:32.672Z,6.87
2018-11-01T02:50:00.988Z,6.86
2018-11-01T02:52:29.278Z,6.93
2018-11-01T02:54:57.671Z,7.01
2018-11-01T02:57:26.200Z,6.99
2018-11-01T02:59:54.525Z,6.98
2018-11-01T03:02:22.788Z,6.93
2018-11-01T03:04:51.121Z,6.85
2018-11-01T03:07:19.492Z,6.79
2018-11-01T03:09:47.828Z,6.90
2018-11-01T03:12:16.102Z,7.02
2018-11-01T03:14:44.380Z,6.96
2018-11-01T03:17:12.754Z,7.01
2018-11-01T03:19:40.999Z,7.14
2018-11-01T03:22:09.298Z,6.98
2018-11-01T03:24:37.598Z,7.01
2018-11-01T03:27:06.059Z,6.94
2018-11-01T03:29:34.348Z,6.95
2018-11-01T03:32:02.651Z,7.00
2018-11-01T03:34:31.155Z,7.03
2018-11-01T03:36:59.455Z,6.96
2018-11-01T03:39:27.748Z,6.88
2018-11-01T03:41:56.090Z,6.85
2018-11-01T03:44:24.368Z,6.85
2018-11-01T03:46:52.693Z,6.80
2018-11-01T03:49:20.968Z,6.65
2018-11-01T03:51:49.344Z,6.74
2018-11-01T03:54:17.679Z,6.65
2018-11-01T03:56:45.939Z,6.76
2018-11-01T03:59:14.228Z,6.72
2018-11-01T04:01:42.551Z,6.74
2018-11-01T04:04:11.179Z,6.88
2018-11-01T04:06:39.522Z,6.97
2018-11-01T04:09:10.051Z,6.81
2018-11-01T04:11:38.679Z,6.67
2018-11-01T04:14:07.411Z,6.73
2018-11-01T04:16:36.290Z,6.65
2018-11-01T04:19:04.792Z,6.65
2018-11-01T04:21:33.127Z,6.54
2018-11-01T04:24:01.405Z,6.44
2018-11-01T04:26:29.728Z,6.32
2018-11-01T04:28:58.552Z,6.35
2018-11-01T04:31:26.832Z,6.48
2018-11-01T04:33:55.105Z,6.45
2018-11-01T04:36:23.461Z,6.50
2018-11-01T04:38:51.679Z,6.57
2018-11-01T04:41:19.978Z,6.57
2018-11-01T04:43:48.251Z,6.55
2018-11-01T04:46:16.536Z,6.30
2018-11-01T04:48:44.815Z,6.33
2018-11-01T04:51:13.115Z,6.26
2018-11-01T04:53:42.375Z,6.24
2018-11-01T04:56:10.672Z,6.28
2018-11-01T04:58:38.951Z,6.28
2018-11-01T05:01:07.264Z,6.10
2018-11-01T05:03:35.544Z,5.91
2018-11-01T05:06:03.827Z,5.60
2018-11-01T05:08:32.116Z,5.60
2018-11-01T05:11:00.426Z,5.33
2018-11-01T05:13:29.045Z,5.04
2018-11-01T05:15:57.480Z,5.25
2018-11-01T05:18:25.783Z,5.34
2018-11-01T05:20:54.088Z,5.63
2018-11-01T05:23:22.390Z,5.68
2018-11-01T05:25:50.697Z,5.69
2018-11-01T05:28:18.973Z,5.86
2018-11-01T05:30:47.251Z,6.12
2018-11-01T05:33:15.554Z,6.17
2018-11-01T05:35:43.840Z,6.15
2018-11-01T05:38:13.155Z,6.23
2018-11-01T05:40:41.475Z,6.28
2018-11-01T05:43:11.288Z,6.49
2018-11-01T05:45:39.564Z,6.36
2018-11-01T05:48:07.875Z,6.30
2018-11-01T05:50:36.147Z,6.18
2018-11-01T05:53:04.466Z,5.99
2018-11-01T05:55:33.055Z,5.74
2018-11-01T05:58:01.372Z,5.63
2018-11-01T06:00:29.707Z,5.65
2018-11-01T06:02:58.006Z,5.63
2018-11-01T06:05:26.295Z,5.48
2018-11-01T06:07:56.643Z,5.49
2018-11-01T06:10:24.923Z,5.42
2018-11-01T06:12:53.456Z,5.31
2018-11-01T06:15:21.794Z,5.20
2018-11-01T06:17:50.083Z,5.29
2018-11-01T06:20:18.495Z,5.17
2018-11-01T06:22:46.847Z,5.14
2018-11-01T06:25:15.147Z,5.20
2018-11-01T06:27:43.463Z,5.12
2018-11-01T06:30:14.130Z,5.28
2018-11-01T06:32:42.740Z,5.26
2018-11-01T06:35:21.314Z,5.21
2018-11-01T06:37:49.615Z,5.17
2018-11-01T06:40:18.320Z,5.09
2018-11-01T06:42:47.134Z,5.10
2018-11-01T06:45:15.455Z,5.15
2018-11-01T06:47:43.808Z,5.15
2018-11-01T06:50:12.154Z,5.18
2018-11-01T06:52:40.460Z,5.19
2018-11-01T06:55:09.795Z,5.18
2018-11-01T06:57:38.295Z,5.26
2018-11-01T07:00:10.299Z,5.29
2018-11-01T07:02:38.770Z,5.28
2018-11-01T07:05:07.398Z,5.45
2018-11-01T07:07:35.820Z,5.36
2018-11-01T07:10:04.267Z,5.50
2018-11-01T07:12:32.587Z,5.45
2018-11-01T07:15:00.867Z,5.70
2018-11-01T07:17:29.290Z,5.83
2018-11-01T07:19:57.948Z,5.70
2018-11-01T07:22:26.242Z,5.73
2018-11-01T07:24:54.528Z,5.73
2018-11-01T07:27:22.965Z,5.81
2018-11-01T07:29:51.251Z,5.86
2018-11-01T07:32:19.564Z,5.92
2018-11-01T07:34:47.863Z,6.06
2018-11-01T07:37:16.167Z,6.09
2018-11-01T07:39:44.563Z,6.15
2018-11-01T07:42:12.858Z,6.16
2018-11-01T07:44:41.183Z,6.25
2018-11-01T07:47:09.508Z,6.38
2018-11-01T07:49:37.795Z,6.47
2018-11-01T07:52:06.120Z,6.73
2018-11-01T07:54:34.399Z,6.72
2018-11-01T07:57:02.692Z,6.85
2018-11-01T07:59:30.999Z,6.98
2018-11-01T08:02:00.188Z,6.99
2018-11-01T08:04:28.485Z,7.27
2018-11-01T08:06:56.771Z,7.44
2018-11-01T08:09:25.111Z,7.37
2018-11-01T08:11:53.408Z,6.99
2018-11-01T08:14:21.720Z,7.06
2018-11-01T08:16:49.996Z,7.17
2018-11-01T08:19:18.300Z,7.09
2018-11-01T08:21:46.576Z,7.12
2018-11-01T08:24:14.912Z,7.16
2018-11-01T08:26:43.355Z,7.20
2018-11-01T08:29:11.897Z,7.21
2018-11-01T08:31:40.319Z,7.17
2018-11-01T08:34:08.627Z,7.18
2018-11-01T08:36:36.907Z,7.29
2018-11-01T08:39:07.356Z,7.35
2018-11-01T08:41:35.625Z,7.67
2018-11-01T08:44:03.955Z,7.57
2018-11-01T08:46:32.228Z,7.63
2018-11-01T08:49:00.528Z,7.64
2018-11-01T08:51:28.818Z,7.70
2018-11-01T08:53:57.319Z,7.97
2018-11-01T08:56:25.903Z,8.22
2018-11-01T08:58:54.202Z,8.26
2018-11-01T09:01:22.477Z,8.28
2018-11-01T09:03:51.139Z,8.13
2018-11-01T09:06:19.416Z,7.98
2018-11-01T09:08:47.709Z,8.00
2018-11-01T09:11:16.007Z,8.05
2018-11-01T09:13:46.403Z,8.00
2018-11-01T09:16:14.699Z,7.98
2018-11-01T09:18:42.992Z,8.14
2018-11-01T09:21:11.305Z,8.31
2018-11-01T09:23:39.678Z,8.12
2018-11-01T09:26:07.962Z,8.23
2018-11-01T09:28:36.255Z,8.37
2018-11-01T09:31:05.029Z,8.44
2018-11-01T09:33:33.328Z,8.27
2018-11-01T09:36:01.612Z,8.22
2018-11-01T09:38:29.920Z,8.38
2018-11-01T09:40:58.208Z,8.79
2018-11-01T09:43:26.479Z,8.84
2018-11-01T09:45:54.883Z,8.73
2018-11-01T09:48:23.119Z,8.82
2018-11-01T09:50:51.417Z,8.95
2018-11-01T09:53:19.698Z,8.76
2018-11-01T09:55:48.108Z,8.85
2018-11-01T09:58:16.720Z,9.33
2018-11-01T10:00:45.033Z,9.15
2018-11-01T10:03:13.331Z,9.22
2018-11-01T10:05:41.656Z,9.01
2018-11-01T10:08:09.948Z,8.68
2018-11-01T10:10:38.264Z,8.48
2018-11-01T10:13:06.572Z,8.89
2018-11-01T10:15:35.172Z,8.81
2018-11-01T10:18:03.674Z,8.87
2018-11-01T10:20:31.523Z,9.20
2018-11-01T10:22:59.824Z,9.15
2018-11-01T10:25:28.152Z,9.07
2018-11-01T10:27:56.411Z,9.12
2018-11-01T10:30:24.748Z,9.38
2018-11-01T10:32:53.035Z,9.36
2018-11-01T10:35:21.328Z,9.11
2018-11-01T10:37:49.835Z,9.27
2018-11-01T10:40:19.508Z,9.35
2018-11-01T10:42:47.775Z,9.12
2018-11-01T10:45:16.132Z,9.01
2018-11-01T10:47:45.043Z,8.95
2018-11-01T10:50:15.780Z,8.93
2018-11-01T10:52:45.318Z,8.93
2018-11-01T10:55:14.418Z,9.31
2018-11-01T10:57:43.818Z,9.41
2018-11-01T11:00:17.537Z,9.38
2018-11-01T11:02:47.803Z,9.29
2018-11-01T11:05:18.359Z,9.12
2018-11-01T11:07:47.227Z,9.07
2018-11-01T11:10:15.845Z,9.27
2018-11-01T11:12:44.146Z,9.71
2018-11-01T11:15:12.872Z,9.48
2018-11-01T11:17:41.390Z,9.30
2018-11-01T11:20:10.783Z,9.41
2018-11-01T11:22:38.983Z,9.37
2018-11-01T11:25:10.429Z,9.49
2018-11-01T11:27:38.744Z,9.40
2018-11-01T11:30:08.134Z,9.23
2018-11-01T11:32:36.396Z,9.10
2018-11-01T11:35:05.060Z,9.33
2018-11-01T11:37:33.431Z,9.42
2018-11-01T11:40:01.740Z,9.47
2018-11-01T11:42:30.020Z,9.52
2018-11-01T11:44:58.331Z,9.47
2018-11-01T11:47:26.651Z,9.30
2018-11-01T11:49:54.947Z,9.52
2018-11-01T11:52:23.236Z,9.47
2018-11-01T11:54:54.787Z,9.68
2018-11-01T11:57:23.056Z,9.83
2018-11-01T11:59:51.355Z,9.78
2018-11-01T12:02:19.703Z,9.70
2018-11-01T12:04:48.671Z,9.69
2018-11-01T12:07:16.976Z,9.55
2018-11-01T12:09:45.254Z,9.56
2018-11-01T12:12:13.563Z,9.71
2018-11-01T12:14:41.823Z,9.36
2018-11-01T12:17:10.127Z,9.22
2018-11-01T12:19:38.432Z,9.28
2018-11-01T12:22:06.781Z,9.23
2018-11-01T12:24:35.028Z,9.23
2018-11-01T12:27:03.366Z,9.27
2018-11-01T12:29:31.947Z,9.49
2018-11-01T12:32:00.247Z,9.52
2018-11-01T12:34:28.547Z,9.30
2018-11-01T12:36:56.847Z,9.26
2018-11-01T12:39:25.586Z,9.40
2018-11-01T12:41:53.903Z,9.32
2018-11-01T12:44:22.192Z,9.30
2018-11-01T12:46:50.495Z,9.44
2018-11-01T12:49:18.781Z,9.38
2018-11-01T12:51:47.374Z,9.36
2018-11-01T12:54:15.688Z,9.39
2018-11-01T12:56:43.979Z,9.33
2018-11-01T12:59:13.199Z,9.37
2018-11-01T13:01:41.503Z,9.29
2018-11-01T13:04:09.791Z,9.35
2018-11-01T13:06:38.099Z,9.35
2018-11-01T13:09:09.765Z,9.39
2018-11-01T13:11:38.112Z,9.37
2018-11-01T13:14:07.004Z,9.29
2018-11-01T13:16:35.303Z,9.42
2018-11-01T13:19:03.628Z,9.50
2018-11-01T13:21:31.919Z,9.46
2018-11-01T13:24:00.223Z,9.67
2018-11-01T13:26:28.570Z,9.49
2018-11-01T13:28:57.173Z,9.40
2018-11-01T13:31:25.483Z,9.43
2018-11-01T13:33:53.761Z,9.45
2018-11-01T13:36:22.316Z,9.31
2018-11-01T13:38:50.628Z,9.33
2018-11-01T13:41:19.065Z,9.23
2018-11-01T13:43:47.279Z,9.07
2018-11-01T13:46:15.572Z,8.94
2018-11-01T13:48:43.939Z,8.94
2018-11-01T13:51:12.220Z,9.04
2018-11-01T13:53:41.139Z,8.93
2018-11-01T13:56:09.439Z,8.90
2018-11-01T13:58:37.775Z,8.86
2018-11-01T14:01:06.375Z,8.92
2018-11-01T14:03:35.495Z,8.92
2018-11-01T14:06:03.819Z,8.84
2018-11-01T14:08:32.172Z,8.93
2018-11-01T14:11:00.500Z,8.92
2018-11-01T14:13:28.925Z,9.00
2018-11-01T14:15:57.111Z,9.02
2018-11-01T14:18:25.396Z,9.31
2018-11-01T14:20:53.650Z,9.36
2018-11-01T14:23:22.179Z,9.32
2018-11-01T14:25:50.472Z,9.33
2018-11-01T14:28:18.784Z,9.38
2018-11-01T14:30:47.135Z,9.38
2018-11-01T14:33:15.392Z,9.20
2018-11-01T14:35:43.703Z,9.18
2018-11-01T14:38:12.044Z,9.17
2018-11-01T14:40:40.339Z,9.24
2018-11-01T14:43:08.723Z,9.17
2018-11-01T14:45:37.063Z,9.50
2018-11-01T14:48:05.537Z,9.72
2018-11-01T14:50:33.862Z,9.40
2018-11-01T14:53:02.640Z,9.27
2018-11-01T14:55:32.017Z,9.31
2018-11-01T14:58:00.506Z,9.28
2018-11-01T15:00:27.420Z,9.37
2018-11-01T15:02:56.184Z,9.24
2018-11-01T15:05:39.063Z,9.18
2018-11-01T15:08:07.404Z,9.29
2018-11-01T15:10:35.731Z,9.28
2018-11-01T15:13:04.153Z,9.14
2018-11-01T15:15:32.435Z,9.11
2018-11-01T15:18:01.036Z,9.24
2018-11-01T15:20:29.407Z,9.24
2018-11-01T15:22:57.742Z,9.36
2018-11-01T15:25:26.068Z,9.63
2018-11-01T15:27:54.375Z,9.74
2018-11-01T15:30:22.728Z,9.64
2018-11-01T15:32:51.075Z,9.34
2018-11-01T15:35:19.419Z,9.23
2018-11-01T15:37:47.743Z,9.17
2018-11-01T15:40:16.117Z,9.04
2018-11-01T15:42:44.783Z,8.92
2018-11-01T15:45:14.185Z,8.56
2018-11-01T15:47:42.976Z,8.35
2018-11-01T15:50:12.503Z,8.15
2018-11-01T15:52:41.290Z,8.05
2018-11-01T15:55:09.812Z,7.99
2018-11-01T15:57:38.453Z,7.97
2018-11-01T16:00:08.820Z,7.88
2018-11-01T16:02:38.945Z,7.85
2018-11-01T16:05:07.282Z,7.74
2018-11-01T16:07:35.960Z,7.67
2018-11-01T16:10:04.614Z,7.61
2018-11-01T16:12:32.895Z,7.63
2018-11-01T16:15:01.551Z,7.69
2018-11-01T16:17:29.870Z,7.63
2018-11-01T16:19:58.341Z,7.48
2018-11-01T16:22:26.878Z,7.48
2018-11-01T16:24:55.188Z,7.37
2018-11-01T16:27:23.539Z,7.28
2018-11-01T16:29:51.952Z,7.39
2018-11-01T16:32:20.259Z,7.39
2018-11-01T16:34:48.587Z,7.31
2018-11-01T16:37:17.009Z,7.37
2018-11-01T16:39:45.271Z,7.49
2018-11-01T16:42:13.719Z,7.50
2018-11-01T16:44:41.971Z,7.52
2018-11-01T16:47:10.319Z,7.48
2018-11-01T16:49:38.643Z,7.35
2018-11-01T16:52:07.067Z,7.39
2018-11-01T16:54:35.480Z,7.50
2018-11-01T16:57:03.876Z,7.43
2018-11-01T16:59:32.200Z,7.67
2018-11-01T17:02:00.572Z,7.73
2018-11-01T17:04:28.908Z,8.04
2018-11-01T17:06:57.240Z,8.19
2018-11-01T17:09:25.567Z,8.22
2018-11-01T17:11:53.957Z,8.24
2018-11-01T17:14:22.300Z,8.44
2018-11-01T17:16:50.719Z,8.50
2018-11-01T17:19:19.052Z,8.36
2018-11-01T17:21:47.423Z,8.44
2018-11-01T17:24:15.735Z,8.50
2018-11-01T17:26:44.095Z,8.49
2018-11-01T17:29:12.427Z,8.44
2018-11-01T17:31:41.395Z,8.43
2018-11-01T17:34:09.826Z,8.44
2018-11-01T17:36:38.393Z,8.52
2018-11-01T17:39:08.578Z,8.48
2018-11-01T17:41:36.919Z,8.45
2018-11-01T17:44:05.706Z,8.55
2018-11-01T17:46:34.046Z,8.40
2018-11-01T17:49:02.391Z,8.51
2018-11-01T17:51:30.891Z,8.38
2018-11-01T17:53:59.184Z,8.45
2018-11-01T17:56:27.538Z,8.39
2018-11-01T17:58:56.015Z,8.38
2018-11-01T18:01:24.452Z,8.37
2018-11-01T18:03:52.844Z,8.38
2018-11-01T18:06:21.184Z,8.47
2018-11-01T18:08:49.561Z,8.36
2018-11-01T18:11:17.909Z,8.39
2018-11-01T18:13:46.247Z,8.35
2018-11-01T18:16:14.599Z,8.30
2018-11-01T18:18:42.956Z,8.34
2018-11-01T18:21:11.291Z,8.25
2018-11-01T18:23:39.651Z,8.24
2018-11-01T18:26:07.964Z,8.18
2018-11-01T18:28:36.375Z,8.05
2018-11-01T18:31:04.679Z,8.01
2018-11-01T18:33:33.015Z,7.99
2018-11-01T18:36:01.358Z,8.02
2018-11-01T18:38:29.728Z,8.08
2018-11-01T18:40:58.077Z,8.02
2018-11-01T18:43:26.423Z,7.97
2018-11-01T18:45:54.800Z,8.06
2018-11-01T18:48:23.222Z,8.09
2018-11-01T18:50:51.545Z,8.08
2018-11-01T18:53:19.960Z,8.01
2018-11-01T18:55:48.350Z,8.12
2018-11-01T18:58:16.703Z,8.15
2018-11-01T19:00:45.175Z,8.04
2018-11-01T19:03:13.416Z,8.12
2018-11-01T19:05:41.744Z,8.07
2018-11-01T19:08:10.092Z,7.93
2018-11-01T19:10:38.915Z,8.01
2018-11-01T19:13:07.276Z,8.08
2018-11-01T19:15:35.644Z,8.10
2018-11-01T19:18:03.975Z,8.18
2018-11-01T19:20:32.612Z,8.21
2018-11-01T19:23:01.038Z,8.40
2018-11-01T19:25:29.828Z,8.44
2018-11-01T19:27:58.232Z,8.48
2018-11-01T19:30:26.666Z,8.46
2018-11-01T19:32:55.013Z,8.48
2018-11-01T19:35:23.364Z,8.52
2018-11-01T19:37:52.605Z,8.59
2018-11-01T19:40:21.100Z,8.68
2018-11-01T19:42:49.426Z,8.74
2018-11-01T19:45:17.787Z,8.76
2018-11-01T19:47:46.148Z,8.72
2018-11-01T19:50:15.658Z,8.70
2018-11-01T19:52:44.449Z,8.60
2018-11-01T19:55:13.436Z,8.57
2018-11-01T19:57:42.061Z,8.53
2018-11-01T20:00:12.144Z,8.54
2018-11-01T20:02:40.605Z,8.50
2018-11-01T20:05:09.675Z,8.56
2018-11-01T20:07:38.073Z,8.57
2018-11-01T20:10:07.982Z,8.59
2018-11-01T20:12:36.312Z,8.69
2018-11-01T20:15:05.193Z,8.66
2018-11-01T20:17:33.593Z,8.68
2018-11-01T20:20:01.986Z,8.61
2018-11-01T20:22:30.315Z,8.64
2018-11-01T20:24:58.660Z,8.72
2018-11-01T20:27:27.074Z,8.66
2018-11-01T20:29:55.376Z,8.71
2018-11-01T20:32:23.696Z,8.78
2018-11-01T20:34:52.033Z,8.81
2018-11-01T20:37:20.347Z,8.79
2018-11-01T20:39:48.733Z,8.82
2018-11-01T20:42:17.076Z,8.80
2018-11-01T20:44:45.423Z,8.81
2018-11-01T20:47:13.763Z,8.83
2018-11-01T20:49:42.138Z,8.84
2018-11-01T20:52:10.499Z,8.88
2018-11-01T20:54:38.927Z,8.83
2018-11-01T20:57:07.341Z,8.80
2018-11-01T20:59:35.664Z,8.80
2018-11-01T21:02:04.027Z,8.82
2018-11-01T21:04:32.387Z,8.81
2018-11-01T21:07:00.728Z,8.81
2018-11-01T21:09:32.101Z,8.80
2018-11-01T21:12:00.730Z,8.74
2018-11-01T21:14:29.048Z,8.68
2018-11-01T21:16:57.391Z,8.68
2018-11-01T21:19:25.729Z,8.61
2018-11-01T21:21:54.069Z,8.61
2018-11-01T21:24:22.413Z,8.62
2018-11-01T21:26:50.767Z,8.61
2018-11-01T21:29:19.172Z,8.57
2018-11-01T21:31:47.444Z,8.54
2018-11-01T21:34:15.810Z,8.50
2018-11-01T21:36:44.166Z,8.44
2018-11-01T21:39:12.616Z,8.46
2018-11-01T21:41:40.948Z,8.43
2018-11-01T21:44:09.600Z,8.39
2018-11-01T21:46:38.411Z,8.42
2018-11-01T21:49:06.792Z,8.46
2018-11-01T21:51:35.099Z,8.45
2018-11-01T21:54:03.468Z,8.38
2018-11-01T21:56:31.819Z,8.42
2018-11-01T21:59:00.178Z,8.39
2018-11-01T22:01:28.553Z,8.36
2018-11-01T22:03:56.885Z,8.36
2018-11-01T22:06:25.739Z,8.33
2018-11-01T22:08:54.059Z,8.33
2018-11-01T22:11:22.464Z,8.32
2018-11-01T22:13:50.792Z,8.29
2018-11-01T22:16:19.143Z,8.31
2018-11-01T22:18:47.475Z,8.27
2018-11-01T22:21:15.835Z,8.25
2018-11-01T22:23:44.159Z,8.26
2018-11-01T22:26:12.554Z,8.29
2018-11-01T22:28:40.997Z,8.28
2018-11-01T22:31:09.296Z,8.35
2018-11-01T22:33:37.623Z,8.29
2018-11-01T22:36:05.983Z,8.30
2018-11-01T22:38:34.360Z,8.29
2018-11-01T22:41:02.663Z,8.32
2018-11-01T22:43:31.005Z,8.34
2018-11-01T22:45:59.363Z,8.35
2018-11-01T22:48:27.764Z,8.31
2018-11-01T22:50:56.348Z,8.33
2018-11-01T22:53:24.681Z,8.26
2018-11-01T22:55:53.230Z,8.21
2018-11-01T22:58:21.543Z,8.41
2018-11-01T23:00:49.902Z,8.36
2018-11-01T23:03:18.247Z,8.25
2018-11-01T23:05:46.589Z,8.24
2018-11-01T23:08:14.921Z,8.06
2018-11-01T23:10:43.631Z,7.93
2018-11-01T23:13:11.935Z,7.68
2018-11-01T23:15:40.276Z,7.59
2018-11-01T23:18:08.619Z,7.45
2018-11-01T23:20:37.356Z,7.41
2018-11-01T23:23:05.896Z,7.09
2018-11-01T23:25:34.238Z,7.03
2018-11-01T23:28:03.183Z,6.87
2018-11-01T23:30:31.507Z,6.77
2018-11-01T23:32:59.859Z,7.08
2018-11-01T23:35:28.191Z,7.09
2018-11-01T23:38:01.731Z,7.46
2018-11-01T23:40:35.468Z,7.64
2018-11-01T23:43:09.040Z,7.72
2018-11-01T23:45:42.716Z,7.76
2018-11-01T23:48:10.224Z,7.85
2018-11-01T23:51:09.606Z,7.94
2018-11-01T23:53:40.320Z,8.04
2018-11-01T23:56:08.687Z,8.15
2018-11-01T23:58:36.983Z,8.18
